Time,TemperatureF,DewpointF,PressureIn,WindDirection,WindDirectionDegrees,WindSpeedMPH,WindSpeedGustMPH,Humidity,HourlyPrecipIn,Conditions,Clouds,dailyrainin,SoftwareType,DateUTC
2013-09-15 00:00:00,61.1,60.2,29.88,WNW,290,4.0,4.0,97,0.00,,,0.00,Wunderground v.1.15,2013-09-15 03:00:00,
2013-09-15 00:05:00,61.1,60.2,29.88,West,277,5.0,5.0,97,0.00,,,0.00,Wunderground v.1.15,2013-09-15 03:05:00,
2013-09-15 00:10:00,61.1,60.2,29.88,WNW,294,5.0,5.0,97,0.00,,,0.00,Wunderground v.1.15,2013-09-15 03:10:00,
2013-09-15 00:15:00,61.1,60.2,29.88,West,268,4.0,5.0,97,0.00,,,0.00,Wunderground v.1.15,2013-09-15 03:15:00,
2013-09-15 00:20:00,61.1,60.2,29.88,West,274,3.0,6.0,97,0.00,,,0.00,Wunderground v.1.15,2013-09-15 03:20:00,
2013-09-15 00:25:00,61.1,60.2,29.88,WNW,285,3.0,6.0,97,0.00,,,0.00,Wunderground v.1.15,2013-09-15 03:25:00,
2013-09-15 00:30:00,61.1,60.2,29.88,WNW,282,4.0,4.0,97,0.00,,,0.00,Wunderground v.1.15,2013-09-15 03:30:00,
2013-09-15 00:35:00,61.2,60.3,29.88,WNW,286,4.0,4.0,97,0.00,,,0.00,Wunderground v.1.15,2013-09-15 03:35:00,
2013-09-15 00:40:00,61.2,60.3,29.88,West,272,4.0,4.0,97,0.00,,,0.00,Wunderground v.1.15,2013-09-15 03:40:00,
2013-09-15 00:45:00,61.2,60.3,29.88,West,265,5.0,6.0,97,0.00,,,0.00,Wunderground v.1.15,2013-09-15 03:45:00,
2013-09-15 00:55:00,61.3,60.2,29.88,West,265,5.0,6.0,96,0.00,,,0.00,Wunderground v.1.15,2013-09-15 03:55:00,
2013-09-15 01:05:00,61.2,59.8,29.88,West,279,6.0,8.0,95,0.00,,,0.00,Wunderground v.1.15,2013-09-15 04:05:00,
2013-09-15 01:10:00,61.1,59.7,29.88,West,267,6.0,7.0,95,0.00,,,0.00,Wunderground v.1.15,2013-09-15 04:10:00,
2013-09-15 01:15:00,61.0,59.6,29.88,WNW,291,6.0,7.0,95,0.00,,,0.00,Wunderground v.1.15,2013-09-15 04:15:00,
2013-09-15 01:20:00,60.9,59.5,29.89,West,261,5.0,6.0,95,0.00,,,0.00,Wunderground v.1.15,2013-09-15 04:20:00,
2013-09-15 01:25:00,60.8,59.4,29.89,West,280,5.0,6.0,95,0.00,,,0.00,Wunderground v.1.15,2013-09-15 04:25:00,
2013-09-15 01:30:00,60.7,59.3,29.88,West,269,5.0,6.0,95,0.00,,,0.00,Wunderground v.1.15,2013-09-15 04:30:00,
2013-09-15 01:35:00,60.6,59.2,29.88,West,273,5.0,6.0,95,0.00,,,0.00,Wunderground v.1.15,2013-09-15 04:35:00,
2013-09-15 01:40:00,60.4,59.0,29.89,West,264,5.0,6.0,95,0.00,,,0.00,Wunderground v.1.15,2013-09-15 04:40:00,
2013-09-15 01:45:00,60.3,59.2,29.89,WSW,255,5.0,6.0,96,0.00,,,0.00,Wunderground v.1.15,2013-09-15 04:45:00,
2013-09-15 01:50:00,60.2,59.1,29.89,West,279,6.0,6.0,96,0.00,,,0.00,Wunderground v.1.15,2013-09-15 04:50:00,
2013-09-15 01:55:00,60.0,58.9,29.89,West,260,5.0,6.0,96,0.00,,,0.00,Wunderground v.1.15,2013-09-15 04:55:00,
2013-09-15 02:00:00,60.0,58.9,29.89,West,263,6.0,6.0,96,0.00,,,0.00,Wunderground v.1.15,2013-09-15 05:00:00,
2013-09-15 02:05:00,59.9,58.8,29.89,West,279,6.0,7.0,96,0.00,,,0.00,Wunderground v.1.15,2013-09-15 05:05:00,
2013-09-15 02:10:00,59.7,58.6,29.89,West,271,6.0,8.0,96,0.00,,,0.00,Wunderground v.1.15,2013-09-15 05:10:00,
2013-09-15 02:15:00,59.7,58.6,29.89,West,271,6.0,8.0,96,0.00,,,0.00,Wunderground v.1.15,2013-09-15 05:15:00,
2013-09-15 02:20:00,59.6,58.5,29.89,West,275,6.0,8.0,96,0.00,,,0.00,Wunderground v.1.15,2013-09-15 05:20:00,
2013-09-15 02:25:00,59.5,58.4,29.90,WNW,284,6.0,8.0,96,0.00,,,0.00,Wunderground v.1.15,2013-09-15 05:25:00,
2013-09-15 02:35:00,59.3,57.9,29.90,WNW,290,6.0,6.0,95,0.00,,,0.00,Wunderground v.1.15,2013-09-15 05:35:00,
2013-09-15 02:40:00,59.3,57.9,29.90,West,281,6.0,6.0,95,0.00,,,0.00,Wunderground v.1.15,2013-09-15 05:40:00,
2013-09-15 02:50:00,59.0,57.6,29.90,West,270,5.0,5.0,95,0.00,,,0.00,Wunderground v.1.15,2013-09-15 05:50:00,
2013-09-15 02:55:00,58.8,57.4,29.90,WNW,288,5.0,5.0,95,0.00,,,0.00,Wunderground v.1.15,2013-09-15 05:55:00,
2013-09-15 03:00:00,58.7,57.3,29.90,NW,315,5.0,5.0,95,0.00,,,0.00,Wunderground v.1.15,2013-09-15 06:00:00,
2013-09-15 03:05:00,58.5,56.8,29.90,WNW,294,5.0,6.0,94,0.00,,,0.00,Wunderground v.1.15,2013-09-15 06:05:00,
2013-09-15 03:10:00,58.4,56.7,29.90,WNW,301,4.0,4.0,94,0.00,,,0.00,Wunderground v.1.15,2013-09-15 06:10:00,
2013-09-15 03:15:00,58.3,56.6,29.90,WNW,287,5.0,7.0,94,0.00,,,0.00,Wunderground v.1.15,2013-09-15 06:15:00,
2013-09-15 03:20:00,58.1,56.1,29.90,WNW,285,5.0,5.0,93,0.00,,,0.00,Wunderground v.1.15,2013-09-15 06:20:00,
2013-09-15 03:25:00,58.0,56.0,29.90,West,280,5.0,5.0,93,0.00,,,0.00,Wunderground v.1.15,2013-09-15 06:25:00,
2013-09-15 03:30:00,57.8,55.8,29.90,WNW,295,4.0,4.0,93,0.00,,,0.00,Wunderground v.1.15,2013-09-15 06:30:00,
2013-09-15 03:35:00,57.7,56.0,29.90,WNW,286,4.0,5.0,94,0.00,,,0.00,Wunderground v.1.15,2013-09-15 06:35:00,
2013-09-15 03:40:00,57.5,55.8,29.90,WNW,293,4.0,4.0,94,0.00,,,0.00,Wunderground v.1.15,2013-09-15 06:40:00,
2013-09-15 03:45:00,57.4,55.7,29.91,NW,304,4.0,4.0,94,0.00,,,0.00,Wunderground v.1.15,2013-09-15 06:45:00,
2013-09-15 03:50:00,57.2,55.5,29.91,NW,321,4.0,4.0,94,0.00,,,0.00,Wunderground v.1.15,2013-09-15 06:50:00,
2013-09-15 04:00:00,56.9,55.2,29.91,NNW,329,4.0,8.0,94,0.00,,,0.00,Wunderground v.1.15,2013-09-15 07:00:00,
2013-09-15 04:05:00,56.7,55.0,29.92,WNW,298,5.0,8.0,94,0.00,,,0.00,Wunderground v.1.15,2013-09-15 07:05:00,
2013-09-15 04:10:00,56.6,54.9,29.92,West,273,4.0,4.0,94,0.00,,,0.00,Wunderground v.1.15,2013-09-15 07:10:00,
2013-09-15 04:15:00,56.4,54.7,29.92,West,269,4.0,4.0,94,0.00,,,0.00,Wunderground v.1.15,2013-09-15 07:15:00,
2013-09-15 04:20:00,56.3,54.3,29.92,NNW,327,5.0,5.0,93,0.00,,,0.00,Wunderground v.1.15,2013-09-15 07:20:00,
2013-09-15 04:25:00,56.2,54.2,29.92,NW,318,5.0,5.0,93,0.00,,,0.00,Wunderground v.1.15,2013-09-15 07:25:00,
2013-09-15 04:30:00,56.0,54.0,29.92,NW,312,4.0,4.0,93,0.00,,,0.00,Wunderground v.1.15,2013-09-15 07:30:00,
2013-09-15 04:35:00,55.9,53.9,29.93,NW,311,4.0,4.0,93,0.00,,,0.00,Wunderground v.1.15,2013-09-15 07:35:00,
2013-09-15 04:45:00,55.9,53.9,29.93,West,271,3.0,6.0,93,0.00,,,0.00,Wunderground v.1.15,2013-09-15 07:45:00,
2013-09-15 04:55:00,56.0,54.0,29.93,WNW,301,3.0,5.0,93,0.00,,,0.00,Wunderground v.1.15,2013-09-15 07:55:00,
2013-09-15 05:00:00,56.1,54.1,29.94,NW,317,3.0,4.0,93,0.00,,,0.00,Wunderground v.1.15,2013-09-15 08:00:00,
2013-09-15 05:05:00,56.1,54.1,29.94,West,269,5.0,5.0,93,0.00,,,0.00,Wunderground v.1.15,2013-09-15 08:05:00,
2013-09-15 05:10:00,56.2,53.9,29.94,NW,315,6.0,6.0,92,0.00,,,0.00,Wunderground v.1.15,2013-09-15 08:10:00,
2013-09-15 05:15:00,56.2,53.9,29.94,NW,312,6.0,11.0,92,0.00,,,0.00,Wunderground v.1.15,2013-09-15 08:15:00,
2013-09-15 05:20:00,56.1,53.8,29.94,WNW,286,7.0,7.0,92,0.00,,,0.00,Wunderground v.1.15,2013-09-15 08:20:00,
2013-09-15 05:25:00,56.0,53.7,29.94,West,276,7.0,12.0,92,0.00,,,0.00,Wunderground v.1.15,2013-09-15 08:25:00,
2013-09-15 05:35:00,55.7,53.4,29.95,NW,317,7.0,7.0,92,0.00,,,0.00,Wunderground v.1.15,2013-09-15 08:35:00,
2013-09-15 05:40:00,55.5,53.2,29.96,NW,324,7.0,8.0,92,0.00,,,0.00,Wunderground v.1.15,2013-09-15 08:40:00,
2013-09-15 05:45:00,55.4,53.1,29.96,WNW,302,6.0,8.0,92,0.00,,,0.00,Wunderground v.1.15,2013-09-15 08:45:00,
2013-09-15 05:55:00,55.0,52.7,29.96,NNW,348,6.0,10.0,92,0.00,,,0.00,Wunderground v.1.15,2013-09-15 08:55:00,
2013-09-15 06:00:00,54.9,52.6,29.96,NW,317,7.0,7.0,92,0.00,,,0.00,Wunderground v.1.15,2013-09-15 09:00:00,
2013-09-15 06:05:00,54.8,52.5,29.96,West,277,7.0,7.0,92,0.00,,,0.00,Wunderground v.1.15,2013-09-15 09:05:00,
2013-09-15 06:10:00,54.5,52.5,29.96,NNW,334,7.0,12.0,93,0.00,,,0.00,Wunderground v.1.15,2013-09-15 09:10:00,
2013-09-15 06:15:00,54.3,52.0,29.96,NW,311,8.0,12.0,92,0.00,,,0.00,Wunderground v.1.15,2013-09-15 09:15:00,
2013-09-15 06:20:00,54.2,51.9,29.97,WNW,287,8.0,8.0,92,0.00,,,0.00,Wunderground v.1.15,2013-09-15 09:20:00,
2013-09-15 06:30:00,54.1,51.8,29.97,NNW,329,7.0,10.0,92,0.00,,,0.00,Wunderground v.1.15,2013-09-15 09:30:00,
2013-09-15 06:35:00,54.0,51.7,29.97,NW,311,8.0,10.0,92,0.00,,,0.00,Wunderground v.1.15,2013-09-15 09:35:00,
2013-09-15 06:40:00,53.9,51.9,29.98,NNW,334,7.0,7.0,93,0.00,,,0.00,Wunderground v.1.15,2013-09-15 09:40:00,
2013-09-15 06:45:00,53.8,51.8,29.97,NNW,332,5.0,7.0,93,0.00,,,0.00,Wunderground v.1.15,2013-09-15 09:45:00,
2013-09-15 06:50:00,53.7,51.7,29.97,WNW,299,5.0,5.0,93,0.00,,,0.00,Wunderground v.1.15,2013-09-15 09:50:00,
2013-09-15 06:55:00,53.7,51.7,29.98,NW,309,4.0,5.0,93,0.00,,,0.00,Wunderground v.1.15,2013-09-15 09:55:00,
2013-09-15 07:00:00,53.6,51.6,29.98,West,261,4.0,4.0,93,0.00,,,0.00,Wunderground v.1.15,2013-09-15 10:00:00,
2013-09-15 07:05:00,53.6,51.6,29.98,NW,326,4.0,4.0,93,0.00,,,0.00,Wunderground v.1.15,2013-09-15 10:05:00,
2013-09-15 07:10:00,53.6,51.6,29.98,NW,317,5.0,5.0,93,0.00,,,0.00,Wunderground v.1.15,2013-09-15 10:10:00,
2013-09-15 07:15:00,53.6,51.6,29.98,NNW,333,6.0,9.0,93,0.00,,,0.00,Wunderground v.1.15,2013-09-15 10:15:00,
2013-09-15 07:20:00,53.5,51.2,29.98,NW,316,8.0,8.0,92,0.00,,,0.00,Wunderground v.1.15,2013-09-15 10:20:00,
2013-09-15 07:25:00,53.5,51.2,29.98,WNW,294,8.0,8.0,92,0.00,,,0.00,Wunderground v.1.15,2013-09-15 10:25:00,
2013-09-15 07:30:00,53.5,51.2,29.98,NW,306,6.0,6.0,92,0.00,,,0.00,Wunderground v.1.15,2013-09-15 10:30:00,
2013-09-15 07:35:00,53.5,51.2,29.98,WNW,302,5.0,6.0,92,0.00,,,0.00,Wunderground v.1.15,2013-09-15 10:35:00,
2013-09-15 07:40:00,53.5,50.9,29.98,NW,317,6.0,6.0,91,0.00,,,0.00,Wunderground v.1.15,2013-09-15 10:40:00,
2013-09-15 07:45:00,53.5,50.9,29.98,WNW,302,6.0,6.0,91,0.00,,,0.00,Wunderground v.1.15,2013-09-15 10:45:00,
2013-09-15 07:50:00,53.5,51.2,29.98,WNW,300,4.0,4.0,92,0.00,,,0.00,Wunderground v.1.15,2013-09-15 10:50:00,
2013-09-15 07:55:00,53.5,51.2,29.98,WNW,292,3.0,4.0,92,0.00,,,0.00,Wunderground v.1.15,2013-09-15 10:55:00,
2013-09-15 08:00:00,53.5,51.2,29.99,WNW,302,3.0,3.0,92,0.00,,,0.00,Wunderground v.1.15,2013-09-15 11:00:00,
2013-09-15 08:05:00,53.6,51.3,29.99,West,271,4.0,4.0,92,0.00,,,0.00,Wunderground v.1.15,2013-09-15 11:05:00,
2013-09-15 08:10:00,53.7,51.1,29.99,NW,315,4.0,4.0,91,0.00,,,0.00,Wunderground v.1.15,2013-09-15 11:10:00,
2013-09-15 08:15:00,53.8,51.2,29.99,WNW,282,4.0,9.0,91,0.00,,,0.00,Wunderground v.1.15,2013-09-15 11:15:00,
2013-09-15 08:20:00,54.0,51.1,29.99,WNW,302,5.0,5.0,90,0.00,,,0.00,Wunderground v.1.15,2013-09-15 11:20:00,
2013-09-15 08:30:00,54.1,50.9,30.00,NW,326,5.0,9.0,89,0.00,,,0.00,Wunderground v.1.15,2013-09-15 11:30:00,
2013-09-15 08:35:00,54.2,51.3,29.99,NW,316,5.0,9.0,90,0.00,,,0.00,Wunderground v.1.15,2013-09-15 11:35:00,
2013-09-15 08:40:00,54.3,51.4,29.99,West,281,5.0,6.0,90,0.00,,,0.00,Wunderground v.1.15,2013-09-15 11:40:00,
2013-09-15 08:45:00,54.4,51.5,29.99,NNW,331,4.0,6.0,90,0.00,,,0.00,Wunderground v.1.15,2013-09-15 11:45:00,
2013-09-15 08:50:00,54.8,52.2,29.99,NW,313,4.0,4.0,91,0.00,,,0.00,Wunderground v.1.15,2013-09-15 11:50:00,
2013-09-15 09:05:00,56.1,52.6,29.99,WNW,303,5.0,5.0,88,0.00,,,0.00,Wunderground v.1.15,2013-09-15 12:05:00,
2013-09-15 09:10:00,56.2,52.4,29.99,West,276,5.0,7.0,87,0.00,,,0.00,Wunderground v.1.15,2013-09-15 12:10:00,
2013-09-15 09:15:00,56.3,52.8,30.00,NNW,335,5.0,8.0,88,0.00,,,0.00,Wunderground v.1.15,2013-09-15 12:15:00,
2013-09-15 09:20:00,56.7,52.9,30.00,NW,323,5.0,8.0,87,0.00,,,0.00,Wunderground v.1.15,2013-09-15 12:20:00,
2013-09-15 09:25:00,56.9,52.8,30.00,NW,314,5.0,8.0,86,0.00,,,0.00,Wunderground v.1.15,2013-09-15 12:25:00,
2013-09-15 09:30:00,57.3,53.1,30.00,NW,314,5.0,6.0,86,0.00,,,0.00,Wunderground v.1.15,2013-09-15 12:30:00,
2013-09-15 09:40:00,58.0,53.5,30.00,NW,317,5.0,5.0,85,0.00,,,0.00,Wunderground v.1.15,2013-09-15 12:40:00,
2013-09-15 09:45:00,58.7,53.5,30.00,NNW,328,6.0,6.0,83,0.00,,,0.00,Wunderground v.1.15,2013-09-15 12:45:00,
2013-09-15 09:50:00,59.2,54.0,30.00,West,277,5.0,6.0,83,0.00,,,0.00,Wunderground v.1.15,2013-09-15 12:50:00,
2013-09-15 09:55:00,58.4,53.6,30.00,West,275,5.0,6.0,84,0.00,,,0.00,Wunderground v.1.15,2013-09-15 12:55:00,
2013-09-15 10:00:00,58.2,53.4,30.00,WNW,288,6.0,7.0,84,0.00,,,0.00,Wunderground v.1.15,2013-09-15 13:00:00,
2013-09-15 10:10:00,57.9,52.8,30.00,NW,324,6.0,7.0,83,0.00,,,0.00,Wunderground v.1.15,2013-09-15 13:10:00,
2013-09-15 10:15:00,58.6,53.8,30.00,West,281,4.0,8.0,84,0.00,,,0.00,Wunderground v.1.15,2013-09-15 13:15:00,
2013-09-15 10:20:00,58.7,53.9,30.00,WNW,292,5.0,5.0,84,0.00,,,0.00,Wunderground v.1.15,2013-09-15 13:20:00,
2013-09-15 10:25:00,58.7,53.2,30.00,West,279,7.0,8.0,82,0.00,,,0.00,Wunderground v.1.15,2013-09-15 13:25:00,
2013-09-15 10:30:00,58.7,53.5,30.00,WSW,253,7.0,7.0,83,0.00,,,0.00,Wunderground v.1.15,2013-09-15 13:30:00,
2013-09-15 10:35:00,59.1,53.6,30.00,WNW,290,6.0,9.0,82,0.00,,,0.00,Wunderground v.1.15,2013-09-15 13:35:00,
2013-09-15 10:40:00,59.1,53.6,30.00,West,267,6.0,8.0,82,0.00,,,0.00,Wunderground v.1.15,2013-09-15 13:40:00,
2013-09-15 10:45:00,59.6,54.1,30.00,NW,319,6.0,8.0,82,0.00,,,0.00,Wunderground v.1.15,2013-09-15 13:45:00,
2013-09-15 10:50:00,59.9,53.7,30.00,West,263,6.0,10.0,80,0.00,,,0.00,Wunderground v.1.15,2013-09-15 13:50:00,
2013-09-15 10:55:00,59.9,53.7,29.99,NW,319,6.0,10.0,80,0.00,,,0.00,Wunderground v.1.15,2013-09-15 13:55:00,
2013-09-15 11:00:00,60.0,54.2,29.99,NW,321,6.0,6.0,81,0.00,,,0.00,Wunderground v.1.15,2013-09-15 14:00:00,
2013-09-15 11:10:00,60.6,54.4,30.00,West,261,7.0,7.0,80,0.00,,,0.00,Wunderground v.1.15,2013-09-15 14:10:00,
2013-09-15 11:15:00,60.5,54.0,29.99,West,277,7.0,10.0,79,0.00,,,0.00,Wunderground v.1.15,2013-09-15 14:15:00,
2013-09-15 11:20:00,60.4,54.2,29.99,NW,308,8.0,8.0,80,0.00,,,0.00,Wunderground v.1.15,2013-09-15 14:20:00,
2013-09-15 11:25:00,61.2,55.0,29.99,NNW,330,7.0,13.0,80,0.00,,,0.00,Wunderground v.1.15,2013-09-15 14:25:00,
2013-09-15 11:30:00,61.1,54.2,29.99,West,273,6.0,11.0,78,0.00,,,0.00,Wunderground v.1.15,2013-09-15 14:30:00,
2013-09-15 11:35:00,60.6,54.4,29.99,WSW,248,6.0,11.0,80,0.00,,,0.00,Wunderground v.1.15,2013-09-15 14:35:00,
2013-09-15 11:45:00,60.5,53.3,29.99,West,274,8.0,9.0,77,0.00,,,0.00,Wunderground v.1.15,2013-09-15 14:45:00,
2013-09-15 11:50:00,60.3,53.4,29.99,West,273,8.0,12.0,78,0.00,,,0.00,Wunderground v.1.15,2013-09-15 14:50:00,
2013-09-15 11:55:00,60.3,53.4,29.99,West,265,10.0,12.0,78,0.00,,,0.00,Wunderground v.1.15,2013-09-15 14:55:00,
2013-09-15 12:00:00,60.5,54.3,29.99,West,262,9.0,11.0,80,0.00,,,0.00,Wunderground v.1.15,2013-09-15 15:00:00,
2013-09-15 12:05:00,60.9,54.0,29.99,West,277,8.0,11.0,78,0.00,,,0.00,Wunderground v.1.15,2013-09-15 15:05:00,
2013-09-15 12:10:00,61.1,54.5,29.99,NW,315,7.0,7.0,79,0.00,,,0.00,Wunderground v.1.15,2013-09-15 15:10:00,
2013-09-15 12:15:00,61.6,54.7,29.99,NNW,348,7.0,7.0,78,0.00,,,0.00,Wunderground v.1.15,2013-09-15 15:15:00,
2013-09-15 12:20:00,62.2,54.9,29.99,NW,309,8.0,8.0,77,0.00,,,0.00,Wunderground v.1.15,2013-09-15 15:20:00,
2013-09-15 12:25:00,62.6,54.9,29.99,NW,308,8.0,8.0,76,0.00,,,0.00,Wunderground v.1.15,2013-09-15 15:25:00,
2013-09-15 12:30:00,62.8,54.8,29.99,NW,324,9.0,11.0,75,0.00,,,0.00,Wunderground v.1.15,2013-09-15 15:30:00,
2013-09-15 12:35:00,63.1,54.7,29.99,West,279,8.0,11.0,74,0.00,,,0.00,Wunderground v.1.15,2013-09-15 15:35:00,
2013-09-15 12:40:00,62.8,54.8,29.99,WNW,300,7.0,7.0,75,0.00,,,0.00,Wunderground v.1.15,2013-09-15 15:40:00,
2013-09-15 12:45:00,63.1,54.7,29.99,NW,322,6.0,7.0,74,0.00,,,0.00,Wunderground v.1.15,2013-09-15 15:45:00,
2013-09-15 12:50:00,62.3,53.9,29.99,WNW,292,7.0,7.0,74,0.00,,,0.00,Wunderground v.1.15,2013-09-15 15:50:00,
2013-09-15 12:55:00,62.0,54.3,29.99,WNW,297,9.0,9.0,76,0.00,,,0.00,Wunderground v.1.15,2013-09-15 15:55:00,
2013-09-15 13:00:00,62.4,54.4,29.99,NW,310,8.0,11.0,75,0.00,,,0.00,Wunderground v.1.15,2013-09-15 16:00:00,
2013-09-15 13:05:00,62.2,53.8,29.99,West,261,7.0,11.0,74,0.00,,,0.00,Wunderground v.1.15,2013-09-15 16:05:00,
2013-09-15 13:10:00,61.6,53.6,29.99,West,261,7.0,7.0,75,0.00,,,0.00,Wunderground v.1.15,2013-09-15 16:10:00,
2013-09-15 13:15:00,62.0,54.0,29.98,WNW,286,7.0,12.0,75,0.00,,,0.00,Wunderground v.1.15,2013-09-15 16:15:00,
2013-09-15 13:20:00,61.8,54.5,29.99,WSW,253,8.0,8.0,77,0.00,,,0.00,Wunderground v.1.15,2013-09-15 16:20:00,
2013-09-15 13:30:00,62.1,54.1,29.98,North,9,7.0,8.0,75,0.00,,,0.00,Wunderground v.1.15,2013-09-15 16:30:00,
2013-09-15 13:35:00,61.8,54.5,29.98,West,275,8.0,8.0,77,0.00,,,0.00,Wunderground v.1.15,2013-09-15 16:35:00,
2013-09-15 13:40:00,61.7,54.4,29.98,WNW,285,8.0,10.0,77,0.00,,,0.00,Wunderground v.1.15,2013-09-15 16:40:00,
2013-09-15 13:45:00,62.1,54.4,29.98,West,262,8.0,10.0,76,0.00,,,0.00,Wunderground v.1.15,2013-09-15 16:45:00,
2013-09-15 13:50:00,62.6,55.3,29.97,West,279,7.0,7.0,77,0.00,,,0.00,Wunderground v.1.15,2013-09-15 16:50:00,
2013-09-15 13:55:00,63.4,55.7,29.97,WSW,257,6.0,8.0,76,0.00,,,0.00,Wunderground v.1.15,2013-09-15 16:55:00,
2013-09-15 14:00:00,63.4,55.0,29.97,West,281,7.0,8.0,74,0.00,,,0.00,Wunderground v.1.15,2013-09-15 17:00:00,
2013-09-15 14:05:00,63.5,54.7,29.97,WSW,256,9.0,9.0,73,0.00,,,0.00,Wunderground v.1.15,2013-09-15 17:05:00,
2013-09-15 14:10:00,63.8,55.7,29.97,WSW,252,8.0,8.0,75,0.00,,,0.00,Wunderground v.1.15,2013-09-15 17:10:00,
2013-09-15 14:15:00,64.4,55.6,29.97,West,272,7.0,9.0,73,0.00,,,0.00,Wunderground v.1.15,2013-09-15 17:15:00,
2013-09-15 14:20:00,64.0,55.2,29.97,West,277,8.0,8.0,73,0.00,,,0.00,Wunderground v.1.15,2013-09-15 17:20:00,
2013-09-15 14:30:00,63.7,54.5,29.97,WSW,258,8.0,8.0,72,0.00,,,0.00,Wunderground v.1.15,2013-09-15 17:30:00,
2013-09-15 14:35:00,64.1,55.3,29.97,West,271,7.0,8.0,73,0.00,,,0.00,Wunderground v.1.15,2013-09-15 17:35:00,
2013-09-15 14:40:00,64.5,54.9,29.97,NW,321,7.0,7.0,71,0.00,,,0.00,Wunderground v.1.15,2013-09-15 17:40:00,
2013-09-15 14:45:00,64.9,55.7,29.96,West,273,7.0,7.0,72,0.00,,,0.00,Wunderground v.1.15,2013-09-15 17:45:00,
2013-09-15 14:50:00,64.6,54.6,29.96,West,274,7.0,7.0,70,0.00,,,0.00,Wunderground v.1.15,2013-09-15 17:50:00,
2013-09-15 14:55:00,64.8,55.9,29.96,SW,233,6.0,7.0,73,0.00,,,0.00,Wunderground v.1.15,2013-09-15 17:55:00,
2013-09-15 15:00:00,65.2,56.3,29.96,SW,220,5.0,5.0,73,0.00,,,0.00,Wunderground v.1.15,2013-09-15 18:00:00,
2013-09-15 15:10:00,65.4,56.1,29.96,West,263,6.0,11.0,72,0.00,,,0.00,Wunderground v.1.15,2013-09-15 18:10:00,
2013-09-15 15:15:00,65.4,57.6,29.96,West,260,7.0,11.0,76,0.00,,,0.00,Wunderground v.1.15,2013-09-15 18:15:00,
2013-09-15 15:20:00,65.6,56.3,29.96,WSW,242,6.0,6.0,72,0.00,,,0.00,Wunderground v.1.15,2013-09-15 18:20:00,
2013-09-15 15:25:00,65.8,56.5,29.96,SW,234,5.0,6.0,72,0.00,,,0.00,Wunderground v.1.15,2013-09-15 18:25:00,
2013-09-15 15:30:00,65.8,56.1,29.96,WNW,284,5.0,6.0,71,0.00,,,0.00,Wunderground v.1.15,2013-09-15 18:30:00,
2013-09-15 15:35:00,66.1,57.6,29.96,West,278,5.0,6.0,74,0.00,,,0.00,Wunderground v.1.15,2013-09-15 18:35:00,
2013-09-15 15:40:00,66.5,58.0,29.96,SSW,209,5.0,5.0,74,0.00,,,0.00,Wunderground v.1.15,2013-09-15 18:40:00,
2013-09-15 15:45:00,66.3,55.8,29.96,West,275,5.0,8.0,69,0.00,,,0.00,Wunderground v.1.15,2013-09-15 18:45:00,
2013-09-15 15:50:00,66.1,56.0,29.96,SW,223,5.0,5.0,70,0.00,,,0.00,Wunderground v.1.15,2013-09-15 18:50:00,
2013-09-15 15:55:00,66.4,56.7,29.96,WNW,286,5.0,6.0,71,0.00,,,0.00,Wunderground v.1.15,2013-09-15 18:55:00,
2013-09-15 16:00:00,66.4,56.3,29.96,SW,229,5.0,5.0,70,0.00,,,0.00,Wunderground v.1.15,2013-09-15 19:00:00,
2013-09-15 16:10:00,65.7,55.6,29.95,WSW,246,6.0,8.0,70,0.00,,,0.00,Wunderground v.1.15,2013-09-15 19:10:00,
2013-09-15 16:15:00,65.5,56.6,29.95,West,274,7.0,8.0,73,0.00,,,0.00,Wunderground v.1.15,2013-09-15 19:15:00,
2013-09-15 16:20:00,65.5,55.1,29.95,WSW,258,7.0,10.0,69,0.00,,,0.00,Wunderground v.1.15,2013-09-15 19:20:00,
2013-09-15 16:25:00,65.3,55.7,29.95,SW,225,7.0,10.0,71,0.00,,,0.00,Wunderground v.1.15,2013-09-15 19:25:00,
2013-09-15 16:35:00,66.1,56.0,29.95,West,278,4.0,6.0,70,0.00,,,0.00,Wunderground v.1.15,2013-09-15 19:35:00,
2013-09-15 16:40:00,66.0,55.5,29.95,WNW,296,5.0,6.0,69,0.00,,,0.00,Wunderground v.1.15,2013-09-15 19:40:00,
2013-09-15 16:45:00,66.0,55.9,29.95,WSW,258,6.0,6.0,70,0.00,,,0.00,Wunderground v.1.15,2013-09-15 19:45:00,
2013-09-15 16:50:00,65.9,56.2,29.95,West,259,6.0,6.0,71,0.00,,,0.00,Wunderground v.1.15,2013-09-15 19:50:00,
2013-09-15 16:55:00,66.0,55.9,29.95,West,281,6.0,8.0,70,0.00,,,0.00,Wunderground v.1.15,2013-09-15 19:55:00,
2013-09-15 17:00:00,66.1,56.0,29.95,West,279,6.0,6.0,70,0.00,,,0.00,Wunderground v.1.15,2013-09-15 20:00:00,
2013-09-15 17:05:00,66.0,56.7,29.94,SSW,209,6.0,6.0,72,0.00,,,0.00,Wunderground v.1.15,2013-09-15 20:05:00,
2013-09-15 17:15:00,65.8,56.1,29.95,WNW,294,5.0,7.0,71,0.00,,,0.00,Wunderground v.1.15,2013-09-15 20:15:00,
2013-09-15 17:20:00,65.4,55.4,29.95,West,261,6.0,6.0,70,0.00,,,0.00,Wunderground v.1.15,2013-09-15 20:20:00,
2013-09-15 17:25:00,65.2,55.9,29.95,West,263,7.0,7.0,72,0.00,,,0.00,Wunderground v.1.15,2013-09-15 20:25:00,
2013-09-15 17:30:00,65.3,56.0,29.95,West,261,6.0,6.0,72,0.00,,,0.00,Wunderground v.1.15,2013-09-15 20:30:00,
2013-09-15 17:35:00,65.1,56.2,29.95,West,263,6.0,9.0,73,0.00,,,0.00,Wunderground v.1.15,2013-09-15 20:35:00,
2013-09-15 17:40:00,64.6,56.1,29.95,West,261,7.0,9.0,74,0.00,,,0.00,Wunderground v.1.15,2013-09-15 20:40:00,
2013-09-15 17:45:00,64.3,56.2,29.95,West,276,7.0,9.0,75,0.00,,,0.00,Wunderground v.1.15,2013-09-15 20:45:00,
2013-09-15 17:50:00,64.8,56.7,29.95,NW,319,7.0,7.0,75,0.00,,,0.00,Wunderground v.1.15,2013-09-15 20:50:00,
2013-09-15 17:55:00,64.9,56.0,29.95,West,265,7.0,7.0,73,0.00,,,0.00,Wunderground v.1.15,2013-09-15 20:55:00,
2013-09-15 18:00:00,64.8,55.9,29.95,West,270,7.0,13.0,73,0.00,,,0.00,Wunderground v.1.15,2013-09-15 21:00:00,
2013-09-15 18:05:00,64.6,55.7,29.95,West,279,8.0,13.0,73,0.00,,,0.00,Wunderground v.1.15,2013-09-15 21:05:00,
2013-09-15 18:15:00,64.2,56.1,29.95,WNW,284,8.0,9.0,75,0.00,,,0.00,Wunderground v.1.15,2013-09-15 21:15:00,
2013-09-15 18:20:00,64.0,56.3,29.95,West,269,8.0,9.0,76,0.00,,,0.00,Wunderground v.1.15,2013-09-15 21:20:00,
2013-09-15 18:25:00,63.8,56.4,29.95,WNW,292,8.0,9.0,77,0.00,,,0.00,Wunderground v.1.15,2013-09-15 21:25:00,
2013-09-15 18:30:00,63.4,56.1,29.96,West,275,7.0,10.0,77,0.00,,,0.00,Wunderground v.1.15,2013-09-15 21:30:00,
2013-09-15 18:35:00,62.9,55.9,29.95,West,270,7.0,10.0,78,0.00,,,0.00,Wunderground v.1.15,2013-09-15 21:35:00,
2013-09-15 18:40:00,62.5,55.9,29.95,WSW,247,7.0,7.0,79,0.00,,,0.00,Wunderground v.1.15,2013-09-15 21:40:00,
2013-09-15 18:45:00,62.1,55.9,29.95,West,270,7.0,7.0,80,0.00,,,0.00,Wunderground v.1.15,2013-09-15 21:45:00,
2013-09-15 18:50:00,61.8,55.9,29.96,West,271,7.0,14.0,81,0.00,,,0.00,Wunderground v.1.15,2013-09-15 21:50:00,
2013-09-15 18:55:00,61.6,56.0,29.96,West,270,8.0,14.0,82,0.00,,,0.00,Wunderground v.1.15,2013-09-15 21:55:00,
2013-09-15 19:00:00,61.4,55.9,29.96,West,281,8.0,10.0,82,0.00,,,0.00,Wunderground v.1.15,2013-09-15 22:00:00,
2013-09-15 19:15:00,60.7,55.2,29.96,WNW,302,8.0,9.0,82,0.00,,,0.00,Wunderground v.1.15,2013-09-15 22:15:00,
2013-09-15 19:20:00,60.4,54.9,29.96,West,281,8.0,8.0,82,0.00,,,0.00,Wunderground v.1.15,2013-09-15 22:20:00,
2013-09-15 19:25:00,60.2,55.0,29.96,WNW,290,7.0,8.0,83,0.00,,,0.00,Wunderground v.1.15,2013-09-15 22:25:00,
2013-09-15 19:30:00,60.0,55.2,29.97,West,263,6.0,6.0,84,0.00,,,0.00,Wunderground v.1.15,2013-09-15 22:30:00,
2013-09-15 19:35:00,59.7,54.5,29.97,West,267,6.0,6.0,83,0.00,,,0.00,Wunderground v.1.15,2013-09-15 22:35:00,
2013-09-15 19:40:00,59.7,54.5,29.97,WNW,288,7.0,7.0,83,0.00,,,0.00,Wunderground v.1.15,2013-09-15 22:40:00,
2013-09-15 19:45:00,59.5,54.3,29.97,West,279,7.0,10.0,83,0.00,,,0.00,Wunderground v.1.15,2013-09-15 22:45:00,
2013-09-15 19:50:00,59.5,54.7,29.97,West,274,7.0,7.0,84,0.00,,,0.00,Wunderground v.1.15,2013-09-15 22:50:00,
2013-09-15 20:00:00,59.3,54.5,29.97,West,267,6.0,6.0,84,0.00,,,0.00,Wunderground v.1.15,2013-09-15 23:00:00,
2013-09-15 20:05:00,59.1,54.3,29.97,West,275,5.0,6.0,84,0.00,,,0.00,Wunderground v.1.15,2013-09-15 23:05:00,
2013-09-15 20:10:00,58.9,54.1,29.97,West,268,5.0,5.0,84,0.00,,,0.00,Wunderground v.1.15,2013-09-15 23:10:00,
2013-09-15 20:15:00,58.8,54.0,29.97,SW,234,6.0,7.0,84,0.00,,,0.00,Wunderground v.1.15,2013-09-15 23:15:00,
2013-09-15 20:20:00,58.7,53.9,29.97,WNW,286,6.0,6.0,84,0.00,,,0.00,Wunderground v.1.15,2013-09-15 23:20:00,
2013-09-15 20:25:00,58.6,53.8,29.97,West,267,6.0,6.0,84,0.00,,,0.00,Wunderground v.1.15,2013-09-15 23:25:00,
2013-09-15 20:30:00,58.4,53.6,29.97,WSW,256,5.0,5.0,84,0.00,,,0.00,Wunderground v.1.15,2013-09-15 23:30:00,
2013-09-15 20:35:00,58.3,53.5,29.97,West,279,5.0,5.0,84,0.00,,,0.00,Wunderground v.1.15,2013-09-15 23:35:00,
2013-09-15 20:40:00,58.2,53.1,29.97,WSW,254,6.0,6.0,83,0.00,,,0.00,Wunderground v.1.15,2013-09-15 23:40:00,
2013-09-15 20:45:00,58.2,53.1,29.97,WNW,282,6.0,6.0,83,0.00,,,0.00,Wunderground v.1.15,2013-09-15 23:45:00,
2013-09-15 20:50:00,58.2,53.1,29.97,West,264,6.0,10.0,83,0.00,,,0.00,Wunderground v.1.15,2013-09-15 23:50:00,
2013-09-15 20:55:00,58.2,53.1,29.97,SW,234,7.0,10.0,83,0.00,,,0.00,Wunderground v.1.15,2013-09-15 23:55:00,
2013-09-15 21:00:00,58.2,53.1,29.97,West,279,7.0,7.0,83,0.00,,,0.00,Wunderground v.1.15,2013-09-16 00:00:00,
2013-09-15 21:10:00,58.0,52.9,29.98,WSW,256,6.0,6.0,83,0.00,,,0.00,Wunderground v.1.15,2013-09-16 00:10:00,
2013-09-15 21:15:00,57.7,52.9,29.98,West,261,5.0,6.0,84,0.00,,,0.00,Wunderground v.1.15,2013-09-16 00:15:00,
2013-09-15 21:20:00,57.6,52.8,29.98,West,281,4.0,4.0,84,0.00,,,0.00,Wunderground v.1.15,2013-09-16 00:20:00,
2013-09-15 21:25:00,57.4,52.9,29.98,West,278,4.0,4.0,85,0.00,,,0.00,Wunderground v.1.15,2013-09-16 00:25:00,
2013-09-15 21:30:00,57.2,52.7,29.97,West,268,3.0,3.0,85,0.00,,,0.00,Wunderground v.1.15,2013-09-16 00:30:00,
2013-09-15 21:35:00,56.9,52.8,29.98,West,274,2.0,3.0,86,0.00,,,0.00,Wunderground v.1.15,2013-09-16 00:35:00,
2013-09-15 21:40:00,56.7,52.9,29.98,West,267,2.0,2.0,87,0.00,,,0.00,Wunderground v.1.15,2013-09-16 00:40:00,
2013-09-15 21:45:00,56.5,53.0,29.97,WNW,295,2.0,4.0,88,0.00,,,0.00,Wunderground v.1.15,2013-09-16 00:45:00,
2013-09-15 21:55:00,56.7,53.2,29.98,West,273,4.0,5.0,88,0.00,,,0.00,Wunderground v.1.15,2013-09-16 00:55:00,
2013-09-15 22:00:00,56.9,53.7,29.98,West,260,5.0,5.0,89,0.00,,,0.00,Wunderground v.1.15,2013-09-16 01:00:00,
2013-09-15 22:05:00,57.1,53.9,29.98,West,261,6.0,10.0,89,0.00,,,0.00,Wunderground v.1.15,2013-09-16 01:05:00,
2013-09-15 22:10:00,57.2,54.0,29.97,WNW,285,7.0,8.0,89,0.00,,,0.00,Wunderground v.1.15,2013-09-16 01:10:00,
2013-09-15 22:15:00,57.2,54.0,29.97,West,269,6.0,9.0,89,0.00,,,0.00,Wunderground v.1.15,2013-09-16 01:15:00,
2013-09-15 22:20:00,57.2,54.0,29.97,WSW,258,6.0,6.0,89,0.00,,,0.00,Wunderground v.1.15,2013-09-16 01:20:00,
2013-09-15 22:25:00,57.3,54.1,29.97,West,275,6.0,6.0,89,0.00,,,0.00,Wunderground v.1.15,2013-09-16 01:25:00,
2013-09-15 22:30:00,57.2,54.3,29.97,WNW,282,6.0,7.0,90,0.00,,,0.00,Wunderground v.1.15,2013-09-16 01:30:00,
2013-09-15 22:35:00,57.2,54.3,29.97,WSW,244,6.0,7.0,90,0.00,,,0.00,Wunderground v.1.15,2013-09-16 01:35:00,
2013-09-15 22:40:00,57.2,54.3,29.97,West,275,6.0,6.0,90,0.00,,,0.00,Wunderground v.1.15,2013-09-16 01:40:00,
2013-09-15 22:45:00,57.2,54.3,29.97,West,263,6.0,6.0,90,0.00,,,0.00,Wunderground v.1.15,2013-09-16 01:45:00,
2013-09-15 22:50:00,57.2,54.3,29.97,West,272,6.0,7.0,90,0.00,,,0.00,Wunderground v.1.15,2013-09-16 01:50:00,
2013-09-15 22:55:00,57.3,54.4,29.97,WNW,294,6.0,7.0,90,0.00,,,0.00,Wunderground v.1.15,2013-09-16 01:55:00,
2013-09-15 23:00:00,57.2,54.3,29.98,West,264,6.0,7.0,90,0.00,,,0.00,Wunderground v.1.15,2013-09-16 02:00:00,
2013-09-15 23:05:00,57.2,54.3,29.97,West,259,6.0,7.0,90,0.00,,,0.00,Wunderground v.1.15,2013-09-16 02:05:00,
2013-09-15 23:10:00,57.1,54.2,29.97,West,263,6.0,6.0,90,0.00,,,0.00,Wunderground v.1.15,2013-09-16 02:10:00,
2013-09-15 23:15:00,57.2,54.3,29.97,West,272,6.0,6.0,90,0.00,,,0.00,Wunderground v.1.15,2013-09-16 02:15:00,
2013-09-15 23:20:00,57.0,54.1,29.97,WNW,288,4.0,4.0,90,0.00,,,0.00,Wunderground v.1.15,2013-09-16 02:20:00,
2013-09-15 23:25:00,56.7,53.8,29.96,WSW,246,2.0,4.0,90,0.00,,,0.00,Wunderground v.1.15,2013-09-16 02:25:00,
2013-09-15 23:30:00,56.4,53.5,29.96,West,271,1.0,1.0,90,0.00,,,0.00,Wunderground v.1.15,2013-09-16 02:30:00,
2013-09-15 23:35:00,56.2,53.6,29.96,West,276,2.0,2.0,91,0.00,,,0.00,Wunderground v.1.15,2013-09-16 02:35:00,
2013-09-15 23:40:00,56.0,53.7,29.96,West,277,3.0,3.0,92,0.00,,,0.00,Wunderground v.1.15,2013-09-16 02:40:00,
2013-09-15 23:50:00,55.7,53.4,29.96,West,268,2.0,2.0,92,0.00,,,0.00,Wunderground v.1.15,2013-09-16 02:50:00,
2013-09-15 23:55:00,55.8,53.8,29.96,West,267,3.0,5.0,93,0.00,,,0.00,Wunderground v.1.15,2013-09-16 02:55:00,